Masset Airport
CZMT : now visible

Airfield :











YOU CAN JOIN US ON...

 
LOGIN :

Register | Disclaimer

   EN    FR    IT 

 









Legend :    VFR   Marginal VFR   IFR   Intensive IFR   Very Intensive IFR
Visi :
Ceiling :
>= 8 km
>= 3000ft
5 to 8 km
1000 to 3000 ft
1500m to 5 km
500 to 1000 ft
800 to 1500m
200 to 500 ft
< 800m
< 200 ft
Symbols :   Thunderstorms  Fog  Heavy snow  Heavy precipitations  Wind > 20 kt






- Airport Elevation : 25 ft
- IATA code : ZMT


CZMT - Masset

CURRENT METAR :
  • 260108Z 16013G19KT 10SM -SHRA SCT012TCU BKN030 OVC060 07/07 A2958 RMK TCU4SC2SC2 SLP020

EXPIRED METARs :
  • 260100Z 16012KT 15SM SCT020TCU BKN050 OVC080 07/06 A2958 RMK TCU4SC2AC2 SH S SLP020
  • 260000Z 15011G20KT 15SM SCT030 BKN080 OVC120 08/05 A2959 RMK SC4AC2AC2 SLP022
  • 252329Z 15012G18KT 15SM SCT030 BKN100 OVC200 08/05 A2958 RMK SC3AC3CI2 SLP020
  • 252300Z 17013G19KT 15SM FEW030 SCT200 09/05 A2958 RMK CU1CI3 SLP020

Expired Forecast.



MET'MAP, your aeronautical weather chart ! - Copyright ORBIFLY December 2007 - Disclaimer

ORBIFLY MET'MAP TEAM :

Programming & Development : Alexandra Zaïnal
Concept & original design : Baudouin d'Aumeries
Assistance for programming : Marc-Olivier Méhu
Technical & hardware support : Manuel Goepfert

Contact : metmap@orbifly.com




SOURCES & CREDITS :

   NOAA       Earth
Advisory